createdAt,value
2023-02-19T00:03:09.303Z,6.43
2023-02-19T00:08:11.105Z,10.50
2023-02-19T00:13:13.127Z,8.80
2023-02-19T00:18:14.890Z,8.73
2023-02-19T00:23:16.969Z,11.00
2023-02-19T00:28:18.956Z,12.53
2023-02-19T00:33:20.977Z,14.87
2023-02-19T00:38:22.761Z,13.80
2023-02-19T00:43:24.733Z,12.37
2023-02-19T00:48:27.063Z,14.10
2023-02-19T00:53:28.985Z,17.53
2023-02-19T00:58:31.104Z,14.43
2023-02-19T01:03:37.368Z,15.03
2023-02-19T01:08:39.381Z,11.17
2023-02-19T01:13:42.157Z,14.17
2023-02-19T01:18:45.522Z,12.00
2023-02-19T01:23:49.034Z,14.70
2023-02-19T01:28:51.310Z,13.60
2023-02-19T01:33:58.863Z,11.63
2023-02-19T01:39:04.872Z,13.57
2023-02-19T01:44:17.060Z,11.20
2023-02-19T01:49:23.222Z,12.43
2023-02-19T01:54:29.508Z,9.77
2023-02-19T01:59:33.322Z,11.93
2023-02-19T02:04:35.849Z,10.10
2023-02-19T02:09:56.335Z,7.17
2023-02-19T02:14:58.337Z,11.60
2023-02-19T02:20:12.216Z,5.93
2023-02-19T02:25:30.342Z,10.53
2023-02-19T02:30:53.571Z,6.80
2023-02-19T02:36:08.293Z,9.40
2023-02-19T02:41:15.400Z,4.43
2023-02-19T02:46:29.622Z,10.73
2023-02-19T02:51:40.364Z,10.17
2023-02-19T02:56:49.856Z,9.80
2023-02-19T03:02:14.276Z,5.37
2023-02-19T03:07:16.865Z,7.70
2023-02-19T03:12:39.303Z,5.47
2023-02-19T03:18:07.497Z,8.10
2023-02-19T03:23:12.324Z,11.97
2023-02-19T03:28:17.894Z,15.33
2023-02-19T03:33:28.505Z,11.33
2023-02-19T03:38:49.278Z,7.30
2023-02-19T03:44:33.523Z,12.87
2023-02-19T03:49:39.844Z,5.37
2023-02-19T03:54:53.420Z,9.77
2023-02-19T04:00:10.925Z,4.90
2023-02-19T04:05:21.609Z,7.00
2023-02-19T04:10:24.371Z,10.13
2023-02-19T04:15:32.093Z,8.47
2023-02-19T04:20:40.680Z,6.93
2023-02-19T04:25:46.026Z,7.70
2023-02-19T04:30:48.147Z,9.20
2023-02-19T04:35:50.254Z,11.13
2023-02-19T04:40:52.307Z,5.33
2023-02-19T04:45:54.271Z,7.80
2023-02-19T04:50:56.319Z,13.07
2023-02-19T04:56:04.682Z,11.27
2023-02-19T05:01:07.248Z,8.20
2023-02-19T05:06:12.544Z,9.43
2023-02-19T05:11:14.620Z,7.87
2023-02-19T05:16:16.634Z,9.80
2023-02-19T05:21:19.164Z,8.30
2023-02-19T05:26:22.999Z,11.50
2023-02-19T05:31:25.330Z,18.93
2023-02-19T05:36:27.737Z,15.17
2023-02-19T05:41:30.998Z,7.40
2023-02-19T05:46:33.341Z,10.17
2023-02-19T05:51:35.233Z,9.53
2023-02-19T05:56:42.390Z,11.43
2023-02-19T06:01:44.308Z,14.30
2023-02-19T06:06:47.607Z,8.77
2023-02-19T06:11:49.736Z,11.83
2023-02-19T06:16:51.673Z,14.60
2023-02-19T06:21:53.672Z,7.13
2023-02-19T06:26:55.518Z,8.37
2023-02-19T06:31:57.532Z,8.67
2023-02-19T06:37:00.210Z,7.67
2023-02-19T06:42:02.269Z,10.67
2023-02-19T06:47:04.155Z,7.80
2023-02-19T06:52:06.497Z,10.43
2023-02-19T06:57:08.537Z,9.67
2023-02-19T07:02:13.817Z,8.17
2023-02-19T07:07:15.703Z,9.13
2023-02-19T07:12:17.636Z,8.03
2023-02-19T07:17:19.623Z,7.90
2023-02-19T07:22:21.577Z,14.20
2023-02-19T07:27:23.632Z,14.70
2023-02-19T07:32:25.468Z,10.60
2023-02-19T07:37:27.283Z,8.37
2023-02-19T07:42:29.073Z,11.23
2023-02-19T07:47:30.989Z,8.07
2023-02-19T07:52:34.358Z,11.67
2023-02-19T07:57:36.132Z,7.23
2023-02-19T08:02:56.908Z,7.47
2023-02-19T08:08:00.080Z,9.97
2023-02-19T08:13:24.080Z,10.30
2023-02-19T08:18:30.160Z,4.33
2023-02-19T08:23:32.724Z,9.57
2023-02-19T08:28:36.335Z,7.93
2023-02-19T08:33:49.438Z,13.73
2023-02-19T08:38:52.072Z,11.00
2023-02-19T08:43:54.289Z,8.03
2023-02-19T08:48:56.342Z,9.20
2023-02-19T08:53:58.381Z,9.33
2023-02-19T08:59:00.697Z,6.67
2023-02-19T09:04:02.645Z,7.50
2023-02-19T09:09:05.273Z,10.03
2023-02-19T09:14:10.367Z,5.83
2023-02-19T09:19:12.154Z,10.07
2023-02-19T09:24:14.245Z,9.37
2023-02-19T09:29:17.313Z,7.40
2023-02-19T09:34:19.904Z,9.63
2023-02-19T09:39:22.305Z,11.07
2023-02-19T09:44:27.871Z,6.30
2023-02-19T09:49:39.382Z,9.83
2023-02-19T09:54:42.520Z,6.37
2023-02-19T09:59:46.177Z,6.97
2023-02-19T10:04:51.263Z,5.70
2023-02-19T10:10:13.760Z,10.07
2023-02-19T10:15:39.059Z,8.83
2023-02-19T10:20:41.026Z,10.03
2023-02-19T10:25:51.782Z,7.47
2023-02-19T10:30:58.140Z,7.20
2023-02-19T10:36:02.313Z,5.47
2023-02-19T10:41:17.599Z,7.77
2023-02-19T10:46:26.408Z,7.87
2023-02-19T10:51:41.081Z,11.07
2023-02-19T10:56:44.639Z,6.30
2023-02-19T11:02:06.395Z,6.83
2023-02-19T11:07:17.429Z,10.33
2023-02-19T11:12:27.180Z,8.37
2023-02-19T11:17:30.520Z,9.10
2023-02-19T11:22:38.846Z,7.97
2023-02-19T11:28:07.291Z,9.53
2023-02-19T11:33:25.425Z,4.97
2023-02-19T11:38:27.990Z,7.30
2023-02-19T11:43:42.162Z,5.00
2023-02-19T11:48:54.703Z,6.97
2023-02-19T11:54:21.389Z,8.17
2023-02-19T11:59:48.790Z,8.73
2023-02-19T12:05:18.729Z,6.73
2023-02-19T12:11:03.443Z,4.67
2023-02-19T12:16:29.449Z,5.17
2023-02-19T12:21:43.981Z,7.13
2023-02-19T12:27:10.438Z,4.87
2023-02-19T12:32:39.112Z,4.10
2023-02-19T12:37:46.947Z,8.30
2023-02-19T12:42:51.049Z,6.43
2023-02-19T12:48:12.080Z,9.63
2023-02-19T12:53:30.609Z,9.87
2023-02-19T12:58:39.800Z,6.90
2023-02-19T13:03:49.832Z,4.10
2023-02-19T13:09:06.651Z,7.70
2023-02-19T13:14:11.852Z,4.70
2023-02-19T13:19:15.151Z,5.23
2023-02-19T13:24:34.648Z,5.77
2023-02-19T13:29:55.815Z,2.30
2023-02-19T13:35:20.744Z,5.50
2023-02-19T13:40:34.981Z,5.13
2023-02-19T13:45:43.447Z,5.50
2023-02-19T13:50:45.277Z,4.63
2023-02-19T13:55:51.810Z,8.13
2023-02-19T14:00:54.921Z,4.67
2023-02-19T14:06:07.447Z,6.50
2023-02-19T14:11:12.114Z,4.57
2023-02-19T14:16:55.211Z,3.57
2023-02-19T14:21:57.060Z,5.67
2023-02-19T14:27:00.361Z,4.60
2023-02-19T14:32:05.391Z,2.47
2023-02-19T14:37:17.906Z,10.70
2023-02-19T14:42:27.583Z,7.13
2023-02-19T14:47:34.488Z,4.77
2023-02-19T14:52:41.065Z,5.67
2023-02-19T14:57:48.795Z,2.60
2023-02-19T15:02:52.531Z,2.10
2023-02-19T15:07:57.590Z,3.70
2023-02-19T15:13:03.705Z,2.53
2023-02-19T15:18:06.151Z,4.87
2023-02-19T15:23:08.368Z,3.80
2023-02-19T15:28:25.392Z,3.33
2023-02-19T15:33:28.081Z,7.60
2023-02-19T15:38:30.546Z,2.70
2023-02-19T15:43:53.831Z,4.87
2023-02-19T15:49:04.670Z,3.90
2023-02-19T15:54:27.262Z,3.80
2023-02-19T15:59:43.876Z,4.73
2023-02-19T16:04:45.943Z,3.63
2023-02-19T16:09:47.867Z,8.17
2023-02-19T16:14:51.009Z,6.67
2023-02-19T16:20:01.416Z,5.53
2023-02-19T16:25:06.467Z,4.80
2023-02-19T16:30:27.028Z,3.77
2023-02-19T16:35:39.912Z,3.70
2023-02-19T16:41:04.515Z,3.80
2023-02-19T16:46:10.287Z,3.67
2023-02-19T16:51:20.906Z,4.03
2023-02-19T16:56:23.126Z,4.97
2023-02-19T17:01:26.738Z,5.60
2023-02-19T17:06:28.921Z,7.43
2023-02-19T17:11:30.931Z,3.50
2023-02-19T17:16:40.391Z,5.77
2023-02-19T17:21:43.026Z,5.27
2023-02-19T17:26:44.827Z,7.00
2023-02-19T17:31:46.945Z,3.97
2023-02-19T17:36:48.984Z,6.03
2023-02-19T17:41:51.348Z,6.97
2023-02-19T17:46:53.340Z,5.20
2023-02-19T17:51:55.119Z,6.67
2023-02-19T17:56:57.090Z,8.07
2023-02-19T18:01:59.034Z,10.90
2023-02-19T18:07:02.068Z,9.63
2023-02-19T18:12:04.464Z,10.27
2023-02-19T18:17:06.406Z,7.90
2023-02-19T18:22:08.320Z,8.43
2023-02-19T18:27:10.289Z,7.47
2023-02-19T18:32:12.131Z,8.63
2023-02-19T18:37:14.186Z,9.00
2023-02-19T18:42:16.292Z,7.87
2023-02-19T18:47:20.086Z,9.70
2023-02-19T18:52:24.911Z,8.40
2023-02-19T18:57:26.837Z,8.83
2023-02-19T19:02:36.415Z,7.70
2023-02-19T19:07:44.633Z,7.43
2023-02-19T19:12:46.734Z,7.13
2023-02-19T19:17:48.564Z,10.77
2023-02-19T19:22:52.655Z,12.03
2023-02-19T19:27:57.741Z,11.43
2023-02-19T19:33:01.713Z,9.43
2023-02-19T19:38:03.751Z,9.53
2023-02-19T19:43:05.895Z,9.53
2023-02-19T19:48:07.921Z,9.93
2023-02-19T19:53:10.072Z,8.00
2023-02-19T19:58:12.066Z,8.00
2023-02-19T20:03:14.120Z,8.67
2023-02-19T20:08:16.491Z,6.57
2023-02-19T20:13:20.880Z,8.53
2023-02-19T20:18:25.151Z,10.93
2023-02-19T20:23:27.613Z,13.50
2023-02-19T20:28:29.471Z,8.93
2023-02-19T20:33:31.423Z,8.57
2023-02-19T20:38:33.352Z,10.00
2023-02-19T20:43:35.172Z,10.60
2023-02-19T20:48:37.366Z,8.17
2023-02-19T20:53:41.800Z,11.53
2023-02-19T20:58:44.160Z,10.53
2023-02-19T21:03:45.969Z,14.40
2023-02-19T21:08:47.730Z,13.00
2023-02-19T21:13:49.805Z,13.83
2023-02-19T21:18:52.216Z,11.53
2023-02-19T21:23:55.868Z,20.67
2023-02-19T21:28:57.685Z,11.90
2023-02-19T21:33:59.606Z,10.70
2023-02-19T21:39:01.676Z,15.10
2023-02-19T21:44:04.042Z,14.50
2023-02-19T21:49:07.314Z,12.53
2023-02-19T21:54:21.616Z,16.97
2023-02-19T21:59:23.591Z,11.43
2023-02-19T22:04:25.500Z,12.20
2023-02-19T22:09:27.281Z,16.80
2023-02-19T22:14:29.301Z,14.80
2023-02-19T22:19:31.326Z,14.73
2023-02-19T22:24:33.142Z,15.83
2023-02-19T22:29:34.979Z,12.77
2023-02-19T22:34:41.752Z,13.47
2023-02-19T22:39:44.501Z,15.73
2023-02-19T22:44:46.466Z,18.27
2023-02-19T22:49:48.369Z,18.20
2023-02-19T22:54:52.423Z,18.17
2023-02-19T22:59:54.191Z,19.93
2023-02-19T23:04:55.951Z,16.47
2023-02-19T23:09:57.728Z,23.17
2023-02-19T23:14:59.697Z,15.73
2023-02-19T23:20:01.927Z,21.17
2023-02-19T23:25:04.472Z,16.63
2023-02-19T23:30:07.023Z,14.83
2023-02-19T23:35:08.975Z,11.80
2023-02-19T23:40:12.033Z,13.53
2023-02-19T23:45:16.331Z,20.03
2023-02-19T23:50:18.379Z,14.43
2023-02-19T23:55:20.214Z,14.13
